Time;durP1;ratioP1;P1;durP2;ratioP2;P2;SDS_P1;SDS_P2;PMS_P1;PMS_P2;Temp;Humidity;BMP_temperature;BMP_pressure;BME280_temperature;BME280_humidity;BME280_pressure;Samples;Min_cycle;Max_cycle;Signal;HPM_P1;HPM_P2
2023/01/31 00:01:35;;;;;;;18.15;2.80;;;;;;;;;;5044990;28;20498;-67
2023/01/31 00:04:02;;;;;;;21.38;2.92;;;;;;;;;;5049486;28;20380;-68
2023/01/31 00:06:32;;;;;;;23.55;2.97;;;;;;;;;;5050848;28;20126;-68
2023/01/31 00:08:59;;;;;;;18.03;3.50;;;;;;;;;;5049302;28;20033;-68
2023/01/31 00:11:26;;;;;;;23.52;3.30;;;;;;;;;;5044924;28;20293;-68
2023/01/31 00:13:53;;;;;;;21.50;2.50;;;;;;;;;;5050430;28;20558;-68
2023/01/31 00:16:19;;;;;;;16.98;2.42;;;;;;;;;;5044131;28;20047;-67
2023/01/31 00:18:45;;;;;;;18.08;3.15;;;;;;;;;;5046893;28;20410;-67
2023/01/31 00:21:31;;;;;;;21.08;2.75;;;;;;;;;;5040445;28;20047;-68
2023/01/31 00:23:58;;;;;;;20.30;2.80;;;;;;;;;;5042566;28;20049;-68
2023/01/31 00:26:32;;;;;;;20.50;3.22;;;;;;;;;;5045559;28;20072;-67
2023/01/31 00:28:59;;;;;;;17.60;2.40;;;;;;;;;;5047932;28;20091;-68
2023/01/31 00:31:26;;;;;;;13.50;3.10;;;;;;;;;;5056346;28;20482;-67
2023/01/31 00:33:53;;;;;;;15.63;2.80;;;;;;;;;;5048408;28;20044;-68
2023/01/31 00:36:20;;;;;;;19.08;3.38;;;;;;;;;;5052558;28;20047;-68
2023/01/31 00:38:50;;;;;;;18.33;3.10;;;;;;;;;;5049721;28;20037;-68
2023/01/31 00:41:17;;;;;;;19.00;2.72;;;;;;;;;;5045602;28;20371;-68
2023/01/31 00:43:43;;;;;;;20.77;3.13;;;;;;;;;;5049427;28;20041;-68
2023/01/31 00:46:09;;;;;;;17.23;2.90;;;;;;;;;;5060051;28;20037;-68
2023/01/31 00:48:35;;;;;;;18.67;3.25;;;;;;;;;;5043785;28;20118;-68
2023/01/31 00:51:01;;;;;;;19.63;2.78;;;;;;;;;;5046498;28;20071;-68
2023/01/31 00:53:27;;;;;;;20.90;2.80;;;;;;;;;;5049186;28;20574;-68
2023/01/31 00:55:54;;;;;;;18.88;3.00;;;;;;;;;;5053638;28;20076;-68
2023/01/31 00:58:20;;;;;;;16.50;2.80;;;;;;;;;;5053901;28;20139;-68
2023/01/31 01:00:47;;;;;;;18.17;2.63;;;;;;;;;;5053294;28;20563;-68
2023/01/31 01:03:13;;;;;;;17.48;2.67;;;;;;;;;;5053011;28;20514;-68
2023/01/31 01:05:39;;;;;;;12.32;2.65;;;;;;;;;;5053160;28;20405;-68
2023/01/31 01:08:05;;;;;;;13.45;2.90;;;;;;;;;;5055081;28;20052;-68
2023/01/31 01:10:32;;;;;;;11.65;1.85;;;;;;;;;;5052094;28;20037;-68
2023/01/31 01:12:58;;;;;;;14.02;2.63;;;;;;;;;;5052095;28;20075;-68
2023/01/31 01:15:24;;;;;;;14.15;2.65;;;;;;;;;;5053460;28;20048;-68
2023/01/31 01:17:50;;;;;;;13.57;2.90;;;;;;;;;;5052603;28;20056;-68
2023/01/31 01:20:16;;;;;;;20.13;3.30;;;;;;;;;;5049477;28;20037;-68
2023/01/31 01:22:42;;;;;;;14.43;2.90;;;;;;;;;;5053106;28;20398;-68
2023/01/31 01:25:09;;;;;;;13.25;2.50;;;;;;;;;;5055683;28;20037;-68
2023/01/31 01:27:35;;;;;;;13.48;2.97;;;;;;;;;;5053522;28;20036;-68
2023/01/31 01:30:01;;;;;;;16.83;3.00;;;;;;;;;;5057431;28;20517;-68
2023/01/31 01:32:27;;;;;;;16.70;2.80;;;;;;;;;;5049656;28;20049;-68
2023/01/31 01:34:53;;;;;;;18.73;3.22;;;;;;;;;;5048920;28;20119;-67
2023/01/31 01:37:19;;;;;;;12.50;2.30;;;;;;;;;;5052360;28;20104;-68
2023/01/31 01:39:49;;;;;;;16.83;2.85;;;;;;;;;;5052386;28;20069;-68
2023/01/31 01:42:19;;;;;;;12.27;2.58;;;;;;;;;;5051010;28;20037;-68
2023/01/31 01:44:52;;;;;;;13.80;2.30;;;;;;;;;;5052679;28;20409;-68
2023/01/31 01:47:26;;;;;;;15.07;2.33;;;;;;;;;;5047983;28;20102;-68
2023/01/31 01:49:55;;;;;;;16.75;2.90;;;;;;;;;;5052025;28;20095;-68
2023/01/31 01:52:21;;;;;;;12.52;2.53;;;;;;;;;;5050891;28;20033;-68
2023/01/31 01:54:56;;;;;;;20.15;2.80;;;;;;;;;;5060899;28;20068;-68
2023/01/31 01:57:25;;;;;;;17.67;2.58;;;;;;;;;;5045533;28;20128;-68
2023/01/31 01:59:58;;;;;;;15.80;2.63;;;;;;;;;;5048573;28;20044;-68
2023/01/31 02:02:24;;;;;;;12.05;2.30;;;;;;;;;;5044675;28;20866;-68
2023/01/31 02:04:51;;;;;;;13.30;3.00;;;;;;;;;;5050946;28;20040;-68
2023/01/31 02:07:17;;;;;;;10.48;2.28;;;;;;;;;;5053486;28;20033;-69
2023/01/31 02:10:03;;;;;;;13.75;2.40;;;;;;;;;;5053268;28;20131;-68
2023/01/31 02:12:30;;;;;;;17.40;2.70;;;;;;;;;;5044324;28;20521;-68
2023/01/31 02:14:56;;;;;;;11.88;2.70;;;;;;;;;;5047312;28;20095;-68
2023/01/31 02:17:22;;;;;;;11.95;2.10;;;;;;;;;;5049062;28;20048;-68
2023/01/31 02:19:57;;;;;;;11.02;2.30;;;;;;;;;;5053449;28;20127;-68
2023/01/31 02:22:42;;;;;;;20.98;3.05;;;;;;;;;;5045878;28;20065;-68
2023/01/31 02:25:43;;;;;;;19.27;2.78;;;;;;;;;;5048495;28;20041;-68
2023/01/31 02:28:25;;;;;;;13.50;2.42;;;;;;;;;;4983425;28;20089;-68
2023/01/31 02:30:57;;;;;;;18.20;2.63;;;;;;;;;;5050620;28;20136;-68
2023/01/31 02:33:26;;;;;;;19.98;2.60;;;;;;;;;;5053538;28;20380;-68
2023/01/31 02:36:13;;;;;;;17.63;3.03;;;;;;;;;;5051465;28;20491;-68
2023/01/31 02:38:38;;;;;;;13.85;2.70;;;;;;;;;;5047138;28;20044;-68
2023/01/31 02:41:20;;;;;;;15.10;2.10;;;;;;;;;;5054878;28;20041;-69
2023/01/31 02:46:43;;;;;;;14.35;2.45;;;;;;;;;;5055244;28;20116;-68
2023/01/31 02:49:33;;;;;;;9.10;2.40;;;;;;;;;;5047552;28;20122;-68
2023/01/31 02:52:19;;;;;;;12.57;2.30;;;;;;;;;;5050560;28;20040;-68
2023/01/31 02:57:38;;;;;;;17.02;3.08;;;;;;;;;;5050412;28;20116;-68
2023/01/31 03:00:05;;;;;;;19.48;2.10;;;;;;;;;;5047831;28;20552;-68
2023/01/31 03:02:31;;;;;;;10.27;2.65;;;;;;;;;;5044964;28;20079;-68
2023/01/31 03:04:57;;;;;;;13.25;2.20;;;;;;;;;;5048708;28;20045;-68
2023/01/31 03:07:25;;;;;;;16.33;2.28;;;;;;;;;;5052870;28;20033;-68
2023/01/31 03:10:12;;;;;;;14.18;2.72;;;;;;;;;;5052388;28;20029;-67
2023/01/31 03:12:45;;;;;;;15.98;2.50;;;;;;;;;;5052590;28;20483;-68
2023/01/31 03:17:30;;;;;;;12.88;2.47;;;;;;;;;;5048310;28;20040;-68
2023/01/31 03:18:18;;;;;;;13.30;2.30;;;;;;;;;;5050052;28;20037;-67
2023/01/31 03:20:52;;;;;;;14.52;2.88;;;;;;;;;;5075873;22;20468;-62
2023/01/31 03:23:19;;;;;;;15.50;2.72;;;;;;;;;;5068052;28;20516;-61
2023/01/31 03:25:46;;;;;;;18.17;3.00;;;;;;;;;;5069985;28;20037;-61
2023/01/31 03:28:15;;;;;;;15.43;2.58;;;;;;;;;;5070030;28;20111;-61
2023/01/31 03:31:00;;;;;;;18.13;2.72;;;;;;;;;;5069266;28;20036;-62
2023/01/31 03:33:30;;;;;;;11.63;2.92;;;;;;;;;;5065526;28;20047;-62
2023/01/31 03:35:58;;;;;;;10.20;1.92;;;;;;;;;;5071592;28;20495;-62
2023/01/31 03:38:33;;;;;;;14.68;2.15;;;;;;;;;;5069979;28;20036;-62
2023/01/31 03:41:10;;;;;;;16.55;3.30;;;;;;;;;;5066059;28;20453;-62
2023/01/31 03:43:39;;;;;;;15.20;2.50;;;;;;;;;;5045611;28;20044;-62
2023/01/31 03:46:15;;;;;;;14.50;2.63;;;;;;;;;;5070115;28;20082;-61
2023/01/31 03:48:43;;;;;;;12.93;2.10;;;;;;;;;;5066150;28;20044;-61
2023/01/31 03:51:10;;;;;;;14.63;2.83;;;;;;;;;;5059256;28;20098;-62
2023/01/31 03:53:39;;;;;;;20.10;2.80;;;;;;;;;;5045394;28;20040;-62
2023/01/31 03:56:19;;;;;;;14.05;2.80;;;;;;;;;;5066831;28;20512;-62
2023/01/31 03:58:47;;;;;;;19.50;2.42;;;;;;;;;;5065139;28;20040;-61
2023/01/31 04:01:13;;;;;;;16.63;2.33;;;;;;;;;;5061546;28;20895;-62
2023/01/31 04:03:41;;;;;;;11.55;2.20;;;;;;;;;;5067654;28;20043;-61
2023/01/31 04:06:08;;;;;;;17.67;2.58;;;;;;;;;;5070473;28;20040;-61
2023/01/31 04:08:34;;;;;;;19.33;2.78;;;;;;;;;;5070027;28;20158;-62
2023/01/31 04:11:04;;;;;;;14.90;2.58;;;;;;;;;;5067204;28;20033;-61
2023/01/31 04:13:30;;;;;;;13.73;2.60;;;;;;;;;;5069621;28;20041;-61
2023/01/31 04:15:56;;;;;;;11.65;2.45;;;;;;;;;;5071339;28;20051;-61
2023/01/31 04:18:22;;;;;;;13.05;2.85;;;;;;;;;;5062171;28;20036;-62
2023/01/31 04:20:48;;;;;;;17.30;2.95;;;;;;;;;;5067909;28;20055;-62
2023/01/31 04:23:14;;;;;;;9.55;2.20;;;;;;;;;;5069464;28;20448;-61
2023/01/31 04:25:40;;;;;;;13.40;3.40;;;;;;;;;;5068091;28;20116;-61
2023/01/31 04:28:06;;;;;;;12.38;2.63;;;;;;;;;;5070523;28;20375;-62
2023/01/31 04:30:32;;;;;;;11.93;2.70;;;;;;;;;;5063951;28;20036;-61
2023/01/31 04:32:58;;;;;;;12.98;2.75;;;;;;;;;;5055372;28;20068;-62
2023/01/31 04:35:24;;;;;;;11.95;2.90;;;;;;;;;;5069806;28;20119;-62
2023/01/31 04:37:50;;;;;;;12.40;2.60;;;;;;;;;;5052247;28;20486;-62
2023/01/31 04:40:16;;;;;;;19.38;3.28;;;;;;;;;;5070739;28;20032;-62
2023/01/31 04:42:42;;;;;;;19.00;3.47;;;;;;;;;;5065536;28;20032;-62
2023/01/31 04:45:08;;;;;;;16.15;2.97;;;;;;;;;;5068826;28;20040;-62
2023/01/31 04:47:34;;;;;;;13.82;2.55;;;;;;;;;;5068718;28;20032;-62
2023/01/31 04:50:00;;;;;;;15.98;3.10;;;;;;;;;;5064255;28;20032;-61
2023/01/31 04:52:26;;;;;;;18.73;3.20;;;;;;;;;;5066976;28;20440;-62
2023/01/31 04:54:52;;;;;;;12.88;2.20;;;;;;;;;;5069998;28;20048;-61
2023/01/31 04:57:18;;;;;;;14.82;2.78;;;;;;;;;;5051028;28;20048;-62
2023/01/31 04:59:44;;;;;;;18.88;3.28;;;;;;;;;;5070464;28;20040;-62
2023/01/31 05:02:13;;;;;;;13.98;2.95;;;;;;;;;;5063625;28;20044;-62
2023/01/31 05:04:39;;;;;;;17.67;3.63;;;;;;;;;;5047341;28;20044;-62
2023/01/31 05:07:05;;;;;;;15.27;2.92;;;;;;;;;;5059824;28;20028;-62
2023/01/31 05:09:31;;;;;;;23.50;3.20;;;;;;;;;;5067742;28;20025;-62
2023/01/31 05:11:58;;;;;;;20.23;3.78;;;;;;;;;;5050635;28;20118;-62
2023/01/31 05:14:24;;;;;;;18.42;3.60;;;;;;;;;;5067613;28;20048;-61
2023/01/31 05:16:50;;;;;;;15.63;2.95;;;;;;;;;;5067430;28;20068;-61
2023/01/31 05:19:16;;;;;;;19.77;4.03;;;;;;;;;;5067384;28;20041;-61
2023/01/31 05:21:57;;;;;;;16.65;3.65;;;;;;;;;;5064015;28;20032;-62
2023/01/31 05:24:24;;;;;;;17.95;3.58;;;;;;;;;;5065699;28;20048;-63
2023/01/31 05:26:51;;;;;;;19.63;3.85;;;;;;;;;;5068950;28;20033;-62
2023/01/31 05:29:17;;;;;;;21.55;4.15;;;;;;;;;;5061301;28;20044;-63
2023/01/31 05:31:44;;;;;;;23.35;4.30;;;;;;;;;;5069237;28;20125;-63
2023/01/31 05:34:13;;;;;;;24.60;4.40;;;;;;;;;;5066518;28;20205;-62
2023/01/31 05:36:40;;;;;;;19.95;4.28;;;;;;;;;;5066542;28;20040;-62
2023/01/31 05:39:06;;;;;;;17.83;4.28;;;;;;;;;;5064301;28;20116;-62
2023/01/31 05:41:32;;;;;;;17.67;4.15;;;;;;;;;;5067169;28;20178;-62
2023/01/31 05:43:58;;;;;;;19.42;4.75;;;;;;;;;;5070649;28;20113;-62
2023/01/31 05:46:24;;;;;;;14.63;3.72;;;;;;;;;;5055153;28;20039;-62
2023/01/31 05:48:50;;;;;;;17.60;4.57;;;;;;;;;;5074024;28;20040;-62
2023/01/31 05:51:16;;;;;;;17.35;3.72;;;;;;;;;;5056116;28;20054;-62
2023/01/31 05:53:42;;;;;;;18.88;4.82;;;;;;;;;;5073909;28;20044;-62
2023/01/31 05:56:08;;;;;;;25.63;5.13;;;;;;;;;;5070158;28;20047;-62
2023/01/31 05:58:34;;;;;;;21.52;5.38;;;;;;;;;;5074431;28;20440;-62
2023/01/31 06:01:00;;;;;;;24.63;4.88;;;;;;;;;;5073711;28;20043;-62
2023/01/31 06:03:26;;;;;;;16.77;4.80;;;;;;;;;;5073374;28;20048;-62
2023/01/31 06:05:53;;;;;;;25.15;5.35;;;;;;;;;;5070478;28;20048;-62
2023/01/31 06:08:19;;;;;;;22.02;5.88;;;;;;;;;;5072829;28;20119;-63
2023/01/31 06:10:44;;;;;;;25.05;5.05;;;;;;;;;;5071456;28;20457;-62
2023/01/31 06:13:10;;;;;;;21.38;5.78;;;;;;;;;;5072358;28;20050;-62
2023/01/31 06:15:36;;;;;;;21.05;6.03;;;;;;;;;;5068244;28;20440;-62
2023/01/31 06:18:03;;;;;;;23.48;5.53;;;;;;;;;;5073561;28;20040;-62
2023/01/31 06:20:29;;;;;;;22.17;5.85;;;;;;;;;;5071925;28;20048;-62
2023/01/31 06:22:55;;;;;;;28.80;6.13;;;;;;;;;;5071778;28;20123;-62
2023/01/31 06:25:21;;;;;;;28.20;6.43;;;;;;;;;;5071053;28;20040;-62
2023/01/31 06:27:47;;;;;;;28.45;7.38;;;;;;;;;;5072967;28;20032;-62
2023/01/31 06:30:13;;;;;;;25.67;6.70;;;;;;;;;;5071347;28;20406;-62
2023/01/31 06:32:39;;;;;;;23.00;5.97;;;;;;;;;;5073127;28;20033;-62
2023/01/31 06:35:05;;;;;;;22.80;6.28;;;;;;;;;;5070133;28;20045;-62
2023/01/31 06:37:31;;;;;;;26.25;7.07;;;;;;;;;;5070792;28;20036;-62
2023/01/31 06:39:58;;;;;;;25.90;7.38;;;;;;;;;;5070002;28;20414;-62
2023/01/31 06:42:24;;;;;;;25.83;7.95;;;;;;;;;;5071736;28;20043;-62
2023/01/31 06:44:50;;;;;;;28.38;7.45;;;;;;;;;;5067631;28;20037;-63
2023/01/31 06:47:16;;;;;;;27.60;7.38;;;;;;;;;;5067663;28;20042;-62
2023/01/31 06:49:42;;;;;;;32.15;8.15;;;;;;;;;;5071609;28;20037;-62
2023/01/31 06:52:08;;;;;;;30.80;7.53;;;;;;;;;;5071502;28;20086;-62
2023/01/31 06:54:34;;;;;;;26.58;7.32;;;;;;;;;;5069903;28;21109;-62
2023/01/31 06:57:00;;;;;;;21.35;5.88;;;;;;;;;;5070485;28;20082;-62
2023/01/31 06:59:26;;;;;;;38.10;7.90;;;;;;;;;;5064984;28;20037;-62
2023/01/31 07:01:52;;;;;;;29.30;7.78;;;;;;;;;;5070271;28;20047;-62
2023/01/31 07:04:18;;;;;;;23.17;6.28;;;;;;;;;;5069845;28;20052;-62
2023/01/31 07:06:44;;;;;;;22.35;6.40;;;;;;;;;;5072008;28;20379;-63
2023/01/31 07:09:10;;;;;;;26.88;7.53;;;;;;;;;;5069002;28;20082;-63
2023/01/31 07:11:37;;;;;;;31.25;7.60;;;;;;;;;;5070300;28;20486;-62
2023/01/31 07:14:03;;;;;;;28.80;6.55;;;;;;;;;;5063001;28;20043;-62
2023/01/31 07:16:30;;;;;;;28.52;6.70;;;;;;;;;;5050437;28;20044;-62
2023/01/31 07:18:56;;;;;;;29.75;6.93;;;;;;;;;;5072511;28;20525;-63
2023/01/31 07:21:23;;;;;;;31.23;6.63;;;;;;;;;;5066275;28;20097;-63
2023/01/31 07:23:49;;;;;;;25.42;5.60;;;;;;;;;;5071624;28;20055;-62
2023/01/31 07:26:15;;;;;;;23.73;5.63;;;;;;;;;;5049014;28;20059;-63
2023/01/31 07:28:41;;;;;;;25.80;6.55;;;;;;;;;;5064763;28;20551;-62
2023/01/31 07:31:10;;;;;;;19.92;5.38;;;;;;;;;;5067432;28;20036;-62
2023/01/31 07:33:36;;;;;;;20.02;4.85;;;;;;;;;;5063402;28;20509;-62
2023/01/31 07:36:03;;;;;;;20.10;5.78;;;;;;;;;;5069176;28;20036;-63
2023/01/31 07:38:30;;;;;;;25.42;5.63;;;;;;;;;;5071782;28;20044;-62
2023/01/31 07:41:00;;;;;;;24.63;5.65;;;;;;;;;;5053574;28;20046;-62
2023/01/31 07:43:26;;;;;;;23.45;5.90;;;;;;;;;;5066759;28;20076;-62
2023/01/31 07:45:52;;;;;;;18.67;5.05;;;;;;;;;;5052569;28;20051;-63
2023/01/31 07:48:22;;;;;;;19.73;4.95;;;;;;;;;;5065915;28;20036;-62
2023/01/31 07:50:50;;;;;;;23.75;5.53;;;;;;;;;;5071442;28;20044;-63
2023/01/31 07:53:16;;;;;;;23.38;5.50;;;;;;;;;;5072059;28;20044;-62
2023/01/31 07:55:46;;;;;;;19.52;5.32;;;;;;;;;;5052969;28;20127;-63
2023/01/31 07:58:12;;;;;;;22.52;5.43;;;;;;;;;;5062189;28;20123;-62
2023/01/31 08:03:32;;;;;;;18.15;4.72;;;;;;;;;;5071077;28;20051;-62
2023/01/31 08:05:59;;;;;;;20.50;5.03;;;;;;;;;;5053348;28;20098;-62
2023/01/31 08:08:25;;;;;;;23.50;4.68;;;;;;;;;;5069712;28;20101;-62
2023/01/31 08:10:51;;;;;;;18.30;5.05;;;;;;;;;;5071325;28;20032;-62
2023/01/31 08:13:17;;;;;;;19.50;4.47;;;;;;;;;;5068521;28;20115;-62
2023/01/31 08:15:43;;;;;;;26.77;5.45;;;;;;;;;;5050839;28;20465;-62
2023/01/31 08:18:09;;;;;;;20.83;4.82;;;;;;;;;;5070646;28;20167;-63
2023/01/31 08:20:36;;;;;;;17.05;4.55;;;;;;;;;;5070143;28;20116;-62
2023/01/31 08:23:02;;;;;;;24.35;5.40;;;;;;;;;;5069812;28;20457;-62
2023/01/31 08:25:29;;;;;;;20.55;5.10;;;;;;;;;;5071316;28;20044;-63
2023/01/31 08:27:56;;;;;;;17.33;5.03;;;;;;;;;;5069342;28;20044;-63
2023/01/31 08:30:22;;;;;;;16.88;4.72;;;;;;;;;;5071911;28;20090;-63
2023/01/31 08:32:48;;;;;;;19.48;4.95;;;;;;;;;;5068706;28;20452;-63
2023/01/31 08:35:14;;;;;;;24.58;5.57;;;;;;;;;;5070273;28;20071;-63
2023/01/31 08:37:40;;;;;;;16.80;4.90;;;;;;;;;;5071398;28;20051;-63
2023/01/31 08:40:07;;;;;;;21.83;4.93;;;;;;;;;;5053114;28;20398;-63
2023/01/31 08:42:33;;;;;;;20.65;5.65;;;;;;;;;;5045331;28;20119;-63
2023/01/31 08:44:59;;;;;;;23.45;5.75;;;;;;;;;;5071648;28;20040;-63
2023/01/31 08:47:25;;;;;;;21.52;5.45;;;;;;;;;;5071636;28;20043;-63
2023/01/31 08:49:51;;;;;;;23.08;5.90;;;;;;;;;;5071017;28;20070;-63
2023/01/31 08:52:17;;;;;;;20.05;5.10;;;;;;;;;;5070092;28;20037;-63
2023/01/31 08:54:43;;;;;;;13.52;4.57;;;;;;;;;;5070739;28;20079;-62
2023/01/31 08:57:09;;;;;;;14.98;4.03;;;;;;;;;;5061843;28;20072;-63
2023/01/31 08:59:35;;;;;;;23.17;5.00;;;;;;;;;;5070711;28;20071;-63
2023/01/31 09:02:01;;;;;;;23.42;5.40;;;;;;;;;;5065769;28;20037;-63
2023/01/31 09:04:27;;;;;;;16.20;5.20;;;;;;;;;;5048188;28;20041;-63
2023/01/31 09:06:54;;;;;;;19.25;5.53;;;;;;;;;;5069410;28;20040;-64
2023/01/31 09:09:20;;;;;;;24.65;5.50;;;;;;;;;;5069867;28;20513;-63
2023/01/31 09:11:46;;;;;;;17.63;5.28;;;;;;;;;;5066060;28;20037;-63
2023/01/31 09:14:12;;;;;;;21.23;5.05;;;;;;;;;;5063810;28;20050;-63
2023/01/31 09:16:38;;;;;;;21.00;5.05;;;;;;;;;;5071145;28;20179;-63
2023/01/31 09:19:04;;;;;;;19.10;4.55;;;;;;;;;;5075372;28;20064;-63
2023/01/31 09:21:30;;;;;;;24.73;5.55;;;;;;;;;;5101406;22;20051;-68
2023/01/31 09:23:57;;;;;;;14.40;4.72;;;;;;;;;;5090891;28;20040;-68
2023/01/31 09:26:23;;;;;;;17.80;4.72;;;;;;;;;;5092759;28;20039;-68
2023/01/31 09:28:49;;;;;;;18.65;5.35;;;;;;;;;;5095253;28;20047;-69
2023/01/31 09:31:18;;;;;;;15.35;4.55;;;;;;;;;;5094399;28;20409;-68
2023/01/31 09:33:44;;;;;;;19.70;4.30;;;;;;;;;;5087501;28;20040;-68
2023/01/31 09:36:11;;;;;;;17.90;4.30;;;;;;;;;;5092580;28;20383;-68
2023/01/31 09:38:37;;;;;;;19.35;4.45;;;;;;;;;;5093769;28;20078;-68
2023/01/31 09:41:16;;;;;;;21.08;4.68;;;;;;;;;;5095001;28;20562;-68
2023/01/31 09:43:44;;;;;;;15.23;4.40;;;;;;;;;;5092705;28;20047;-68
2023/01/31 09:46:14;;;;;;;19.98;4.45;;;;;;;;;;5094551;28;20103;-68
2023/01/31 09:48:42;;;;;;;16.87;4.10;;;;;;;;;;5095011;28;20500;-68
2023/01/31 09:51:10;;;;;;;18.35;4.75;;;;;;;;;;5093975;28;20119;-68
2023/01/31 09:53:38;;;;;;;19.15;4.63;;;;;;;;;;5090319;28;20075;-68
2023/01/31 09:56:22;;;;;;;25.50;5.65;;;;;;;;;;5093504;28;20557;-68
2023/01/31 09:58:48;;;;;;;13.27;4.50;;;;;;;;;;5094296;28;20048;-68
2023/01/31 10:01:14;;;;;;;23.00;4.40;;;;;;;;;;5094677;28;20453;-68
2023/01/31 10:03:59;;;;;;;14.55;4.07;;;;;;;;;;5083793;28;20044;-68
2023/01/31 10:06:26;;;;;;;18.15;4.80;;;;;;;;;;5087156;28;20032;-68
2023/01/31 10:09:09;;;;;;;15.63;4.38;;;;;;;;;;5091593;28;20036;-68
2023/01/31 10:11:47;;;;;;;17.30;4.35;;;;;;;;;;5090715;28;20044;-69
2023/01/31 10:14:20;;;;;;;15.75;4.57;;;;;;;;;;5091806;28;20090;-68
2023/01/31 10:16:50;;;;;;;17.15;3.80;;;;;;;;;;5089421;28;20039;-68
2023/01/31 10:19:20;;;;;;;12.90;3.88;;;;;;;;;;5086675;28;20044;-68
2023/01/31 10:21:50;;;;;;;15.80;4.97;;;;;;;;;;5091417;28;20043;-68
2023/01/31 10:24:16;;;;;;;17.98;4.40;;;;;;;;;;5092010;28;20036;-68
2023/01/31 10:26:44;;;;;;;18.50;3.75;;;;;;;;;;5088092;28;20083;-68
2023/01/31 10:29:17;;;;;;;16.40;4.18;;;;;;;;;;5092597;28;20036;-67
2023/01/31 10:31:44;;;;;;;15.23;3.92;;;;;;;;;;5093397;28;20048;-68
2023/01/31 10:34:16;;;;;;;12.43;3.63;;;;;;;;;;5093662;28;20048;-68
2023/01/31 10:36:44;;;;;;;18.65;3.92;;;;;;;;;;5092236;28;20040;-68
2023/01/31 10:39:28;;;;;;;16.20;3.65;;;;;;;;;;5092649;28;20393;-68
2023/01/31 10:41:54;;;;;;;18.88;4.00;;;;;;;;;;5092757;28;20040;-68
2023/01/31 10:44:26;;;;;;;15.88;4.07;;;;;;;;;;5093013;28;20043;-68
2023/01/31 10:46:55;;;;;;;16.58;3.75;;;;;;;;;;5091638;28;20032;-69
2023/01/31 10:49:22;;;;;;;17.75;3.90;;;;;;;;;;5092265;28;20039;-68
2023/01/31 10:51:58;;;;;;;13.63;3.83;;;;;;;;;;5092671;28;20490;-68
2023/01/31 10:54:36;;;;;;;16.67;4.07;;;;;;;;;;5084973;28;20039;-68
2023/01/31 10:57:02;;;;;;;13.85;4.15;;;;;;;;;;5092343;28;20050;-68
2023/01/31 10:59:34;;;;;;;17.60;3.70;;;;;;;;;;5092942;28;20044;-68
2023/01/31 11:02:01;;;;;;;20.65;4.43;;;;;;;;;;5092422;28;20032;-68
2023/01/31 11:04:29;;;;;;;16.08;4.32;;;;;;;;;;5093456;28;20047;-68
2023/01/31 11:06:57;;;;;;;20.35;4.35;;;;;;;;;;5089526;28;20089;-67
2023/01/31 11:09:23;;;;;;;16.80;4.47;;;;;;;;;;5093114;28;20047;-67
2023/01/31 11:11:57;;;;;;;14.13;3.80;;;;;;;;;;5088565;28;20106;-67
2023/01/31 11:14:23;;;;;;;18.65;3.95;;;;;;;;;;5092683;28;20051;-67
2023/01/31 11:16:49;;;;;;;19.35;4.75;;;;;;;;;;5090460;28;20511;-67
2023/01/31 11:19:22;;;;;;;17.00;4.13;;;;;;;;;;5081778;28;20039;-67
2023/01/31 11:21:49;;;;;;;12.55;3.80;;;;;;;;;;5096615;28;20040;-67
2023/01/31 11:24:26;;;;;;;17.10;4.25;;;;;;;;;;5090141;28;20506;-67
2023/01/31 11:27:03;;;;;;;15.98;4.10;;;;;;;;;;5091722;28;20044;-67
2023/01/31 11:29:29;;;;;;;17.73;4.60;;;;;;;;;;5093199;28;20055;-67
2023/01/31 11:31:56;;;;;;;16.45;4.38;;;;;;;;;;5092167;28;20090;-67
2023/01/31 11:34:28;;;;;;;14.90;3.80;;;;;;;;;;5091032;28;20516;-67
2023/01/31 11:37:02;;;;;;;17.27;4.50;;;;;;;;;;5091658;28;20516;-68
2023/01/31 11:39:33;;;;;;;14.52;4.60;;;;;;;;;;5089640;28;20044;-68
2023/01/31 11:42:06;;;;;;;18.10;4.45;;;;;;;;;;5090090;28;20394;-67
2023/01/31 11:44:32;;;;;;;15.00;4.70;;;;;;;;;;5090350;28;20511;-68
2023/01/31 11:47:02;;;;;;;21.48;4.38;;;;;;;;;;5088865;28;20047;-68
2023/01/31 11:49:30;;;;;;;21.15;5.20;;;;;;;;;;5089775;28;20067;-68
2023/01/31 11:51:57;;;;;;;18.35;4.13;;;;;;;;;;5088230;28;20044;-68
2023/01/31 11:54:25;;;;;;;18.90;4.22;;;;;;;;;;5087429;28;20044;-68
2023/01/31 11:56:51;;;;;;;15.05;4.50;;;;;;;;;;5086675;28;20048;-68
2023/01/31 11:59:20;;;;;;;18.98;4.30;;;;;;;;;;5089752;28;20513;-68
2023/01/31 12:01:50;;;;;;;22.92;4.18;;;;;;;;;;5082370;28;20393;-68
2023/01/31 12:04:24;;;;;;;22.17;3.90;;;;;;;;;;5083990;28;20039;-68
2023/01/31 12:06:57;;;;;;;19.58;3.88;;;;;;;;;;5090447;28;20122;-68
2023/01/31 12:09:25;;;;;;;19.30;4.30;;;;;;;;;;5091201;28;20032;-68
2023/01/31 12:11:52;;;;;;;15.23;3.92;;;;;;;;;;5089353;28;20071;-68
2023/01/31 12:14:18;;;;;;;14.98;3.25;;;;;;;;;;5091063;28;20126;-68
2023/01/31 12:16:45;;;;;;;17.73;2.92;;;;;;;;;;5089946;28;20460;-68
2023/01/31 12:19:11;;;;;;;16.30;3.45;;;;;;;;;;5086204;28;20032;-68
2023/01/31 12:21:55;;;;;;;16.42;3.50;;;;;;;;;;5088121;28;20047;-68
2023/01/31 12:24:27;;;;;;;15.82;3.50;;;;;;;;;;5092184;28;20124;-68
2023/01/31 12:27:16;;;;;;;20.98;4.15;;;;;;;;;;5089590;28;20040;-68
2023/01/31 12:29:57;;;;;;;16.65;4.38;;;;;;;;;;5098201;28;20070;-68
2023/01/31 12:32:23;;;;;;;18.98;3.20;;;;;;;;;;5091506;28;20051;-68
2023/01/31 12:35:02;;;;;;;9.80;2.67;;;;;;;;;;5088845;28;20512;-68
2023/01/31 12:37:46;;;;;;;19.20;3.75;;;;;;;;;;5085999;28;20516;-68
2023/01/31 12:40:28;;;;;;;14.60;4.07;;;;;;;;;;5087054;28;20039;-68
2023/01/31 12:42:57;;;;;;;15.80;3.38;;;;;;;;;;5089243;28;20520;-68
2023/01/31 12:45:29;;;;;;;18.77;3.78;;;;;;;;;;5091106;28;20036;-68
2023/01/31 12:48:02;;;;;;;17.38;3.42;;;;;;;;;;5088330;28;20035;-68
2023/01/31 12:50:50;;;;;;;16.27;3.38;;;;;;;;;;5085632;28;20040;-68
2023/01/31 12:53:35;;;;;;;13.93;3.05;;;;;;;;;;5073090;28;20055;-68
2023/01/31 12:56:04;;;;;;;12.55;3.70;;;;;;;;;;5082772;28;20081;-68
2023/01/31 12:58:38;;;;;;;19.58;4.22;;;;;;;;;;5089398;28;20028;-68
2023/01/31 13:01:11;;;;;;;16.02;3.88;;;;;;;;;;5091176;28;20050;-68
2023/01/31 13:03:43;;;;;;;9.40;3.15;;;;;;;;;;5089853;28;20477;-68
2023/01/31 13:06:21;;;;;;;12.45;3.05;;;;;;;;;;5081751;28;20032;-68
2023/01/31 13:08:59;;;;;;;14.23;3.42;;;;;;;;;;5083503;28;20063;-68
2023/01/31 13:11:45;;;;;;;17.35;3.53;;;;;;;;;;5086409;28;20036;-68
2023/01/31 13:14:18;;;;;;;11.82;3.30;;;;;;;;;;5083195;28;20413;-68
2023/01/31 13:16:46;;;;;;;15.32;4.03;;;;;;;;;;5090977;28;20512;-67
2023/01/31 13:19:18;;;;;;;16.88;4.00;;;;;;;;;;5084478;28;20579;-67
2023/01/31 13:21:46;;;;;;;15.32;3.90;;;;;;;;;;5081792;28;20409;-68
2023/01/31 13:24:15;;;;;;;13.20;2.83;;;;;;;;;;5089516;28;20569;-68
2023/01/31 13:26:55;;;;;;;16.73;3.38;;;;;;;;;;5083362;28;20036;-68
2023/01/31 13:29:27;;;;;;;15.32;3.47;;;;;;;;;;5090141;28;20032;-68
2023/01/31 13:32:01;;;;;;;21.13;3.40;;;;;;;;;;5087212;28;20043;-68
2023/01/31 13:34:37;;;;;;;15.35;3.13;;;;;;;;;;5105758;28;20043;-68
2023/01/31 13:37:09;;;;;;;13.07;2.85;;;;;;;;;;5096594;28;20489;-68
2023/01/31 13:39:37;;;;;;;11.15;2.60;;;;;;;;;;5090192;28;20085;-68
2023/01/31 13:42:03;;;;;;;14.20;3.60;;;;;;;;;;5078680;28;20040;-68
2023/01/31 13:44:30;;;;;;;12.52;2.88;;;;;;;;;;5090143;28;20144;-68
2023/01/31 13:47:08;;;;;;;15.38;3.38;;;;;;;;;;5087621;28;20036;-68
2023/01/31 13:49:53;;;;;;;16.58;3.50;;;;;;;;;;5086976;28;20038;-68
2023/01/31 13:52:22;;;;;;;12.57;3.00;;;;;;;;;;5088141;28;20048;-67
2023/01/31 13:54:50;;;;;;;13.15;2.60;;;;;;;;;;5089419;28;20409;-68
2023/01/31 13:57:28;;;;;;;14.55;3.00;;;;;;;;;;5084883;28;20045;-68
2023/01/31 13:59:56;;;;;;;11.98;3.20;;;;;;;;;;5088946;28;20130;-68
2023/01/31 14:02:22;;;;;;;9.38;2.80;;;;;;;;;;5090998;28;20036;-68
2023/01/31 14:04:48;;;;;;;10.70;2.45;;;;;;;;;;5085201;28;20048;-68
2023/01/31 14:07:17;;;;;;;14.10;2.85;;;;;;;;;;5083185;28;20377;-68
2023/01/31 14:09:43;;;;;;;13.95;2.58;;;;;;;;;;5094000;28;20035;-68
2023/01/31 14:12:09;;;;;;;14.23;3.22;;;;;;;;;;5091561;28;20036;-68
2023/01/31 14:14:38;;;;;;;11.60;2.70;;;;;;;;;;5092019;28;20028;-68
2023/01/31 14:17:05;;;;;;;12.35;2.42;;;;;;;;;;5091183;28;20055;-67
2023/01/31 14:19:46;;;;;;;10.25;1.98;;;;;;;;;;5089659;28;20093;-68
2023/01/31 14:22:13;;;;;;;12.10;2.60;;;;;;;;;;5085552;28;20466;-68
2023/01/31 14:24:49;;;;;;;9.18;2.20;;;;;;;;;;5087476;28;20044;-67
2023/01/31 14:27:18;;;;;;;14.27;3.20;;;;;;;;;;5087832;28;20040;-67
2023/01/31 14:29:46;;;;;;;12.20;2.47;;;;;;;;;;5086199;28;20422;-68
2023/01/31 14:32:16;;;;;;;13.95;2.78;;;;;;;;;;5088181;28;20028;-66
2023/01/31 14:34:47;;;;;;;11.32;2.53;;;;;;;;;;5087063;28;20119;-67
2023/01/31 14:37:19;;;;;;;18.17;3.30;;;;;;;;;;5088401;28;20493;-67
2023/01/31 14:39:53;;;;;;;17.90;3.28;;;;;;;;;;5089806;28;20043;-67
2023/01/31 14:42:35;;;;;;;9.32;2.42;;;;;;;;;;5092872;28;20040;-66
2023/01/31 14:45:24;;;;;;;16.67;3.70;;;;;;;;;;5091930;28;20564;-67
2023/01/31 14:47:50;;;;;;;14.15;2.75;;;;;;;;;;5051706;28;20557;-67
2023/01/31 14:50:28;;;;;;;10.10;3.03;;;;;;;;;;5093832;28;20114;-67
2023/01/31 14:53:13;;;;;;;15.50;2.95;;;;;;;;;;5087679;28;20036;-67